KHLG/HLG METAR and TAF weather

Enter ICAO airport designator
Station Type Date Time Source
KHLG METAR 2020/01/24 02:53 UTC NOAA

KHLG 240253Z 06014KT 10SM -RA FEW070 BKN090 OVC110 06/M08 A3012 RMK AO2 RAB50 PRESFR SLP213 P0000 60000 T00561078 58024


Station Type Date Time Source
KHLG Decoded METAR 2020/01/24 02:53 UTC NOAA

WHEELING OHIO COUNTY AIRPORT, WV, United States (KHLG) 40-10N 080-39W 372M
Jan 23, 2020 - 09:53 PM EST / 2020.01.24 0253 UTC
Wind: from the ENE (060 degrees) at 16 MPH (14 KT):0
Visibility: 10 mile(s):0
Sky conditions: overcast
Weather: light rain
Precipitation last hour: A trace
Temperature: 42.1 F (5.6 C)
Dew Point: 18.0 F (-7.8 C)
Relative Humidity: 37%
Pressure (altimeter): 30.12 in. Hg (1019 hPa)
Pressure tendency: falling rapidly - 0.07 inches (2.4 hPa) lower than three hours ago
ob: KHLG 240253Z 06014KT 10SM -RA FEW070 BKN090 OVC110 06/M08 A3012 RMK AO2 RAB50 PRESFR SLP213 P0000 60000 T00561078 58024
cycle: 3

Station Type Date Time Source
KHLG TAF 2020/01/23 18:46 UTC NOAA

TAF KHLG 231744Z 2318/2418 17005KT P6SM BKN150
FM232000 10003KT P6SM OVC100
FM241700 12008KT P6SM VCSH OVC050

Example: see airport list